sensor_id;sensor_type;location;lat;lon;timestamp;temperature;humidity
2002;DHT22;1003;48.002;7.788;2023-05-17T00:02:22;6.30;99.90
2002;DHT22;1003;48.002;7.788;2023-05-17T00:04:51;6.40;99.90
2002;DHT22;1003;48.002;7.788;2023-05-17T00:07:18;6.40;99.90
2002;DHT22;1003;48.002;7.788;2023-05-17T00:09:45;6.50;99.90
2002;DHT22;1003;48.002;7.788;2023-05-17T00:12:12;6.50;99.90
2002;DHT22;1003;48.002;7.788;2023-05-17T00:14:39;6.50;99.90
2002;DHT22;1003;48.002;7.788;2023-05-17T00:17:06;6.50;99.90
2002;DHT22;1003;48.002;7.788;2023-05-17T00:19:33;6.50;99.90
2002;DHT22;1003;48.002;7.788;2023-05-17T00:22:02;6.50;99.90
2002;DHT22;1003;48.002;7.788;2023-05-17T00:24:29;6.40;99.90
2002;DHT22;1003;48.002;7.788;2023-05-17T00:26:56;6.40;99.90
2002;DHT22;1003;48.002;7.788;2023-05-17T00:29:23;6.40;99.90
2002;DHT22;1003;48.002;7.788;2023-05-17T00:31:51;6.40;99.90
2002;DHT22;1003;48.002;7.788;2023-05-17T00:34:18;6.30;99.90
2002;DHT22;1003;48.002;7.788;2023-05-17T00:36:45;6.30;99.90
2002;DHT22;1003;48.002;7.788;2023-05-17T00:39:13;6.30;99.90
2002;DHT22;1003;48.002;7.788;2023-05-17T00:41:40;6.30;99.90
2002;DHT22;1003;48.002;7.788;2023-05-17T00:44:08;6.30;99.90
2002;DHT22;1003;48.002;7.788;2023-05-17T00:46:38;6.30;99.90
2002;DHT22;1003;48.002;7.788;2023-05-17T00:49:05;6.20;99.90
2002;DHT22;1003;48.002;7.788;2023-05-17T00:51:32;6.20;99.90
2002;DHT22;1003;48.002;7.788;2023-05-17T00:54:01;6.10;99.90
2002;DHT22;1003;48.002;7.788;2023-05-17T00:56:31;6.10;99.90
2002;DHT22;1003;48.002;7.788;2023-05-17T00:58:59;6.10;99.90
2002;DHT22;1003;48.002;7.788;2023-05-17T01:01:27;6.00;99.90
2002;DHT22;1003;48.002;7.788;2023-05-17T01:03:54;6.00;99.90
2002;DHT22;1003;48.002;7.788;2023-05-17T01:06:23;6.00;99.90
2002;DHT22;1003;48.002;7.788;2023-05-17T01:08:50;6.00;99.90
2002;DHT22;1003;48.002;7.788;2023-05-17T01:11:28;6.00;99.90
2002;DHT22;1003;48.002;7.788;2023-05-17T01:14:12;5.90;99.90
2002;DHT22;1003;48.002;7.788;2023-05-17T01:16:55;5.90;99.90
2002;DHT22;1003;48.002;7.788;2023-05-17T01:19:56;5.90;99.90
2002;DHT22;1003;48.002;7.788;2023-05-17T01:22:38;5.90;99.90
2002;DHT22;1003;48.002;7.788;2023-05-17T01:25:24;5.80;99.90
2002;DHT22;1003;48.002;7.788;2023-05-17T01:27:58;5.70;99.90
2002;DHT22;1003;48.002;7.788;2023-05-17T01:30:28;5.70;99.90
2002;DHT22;1003;48.002;7.788;2023-05-17T01:32:58;5.70;99.90
2002;DHT22;1003;48.002;7.788;2023-05-17T01:35:26;5.70;99.90
2002;DHT22;1003;48.002;7.788;2023-05-17T01:37:53;5.80;99.90
2002;DHT22;1003;48.002;7.788;2023-05-17T01:40:21;5.80;99.90
2002;DHT22;1003;48.002;7.788;2023-05-17T01:42:53;5.70;99.90
2002;DHT22;1003;48.002;7.788;2023-05-17T01:45:31;5.80;99.90
2002;DHT22;1003;48.002;7.788;2023-05-17T01:48:11;5.80;99.90
2002;DHT22;1003;48.002;7.788;2023-05-17T01:50:45;5.70;99.90
2002;DHT22;1003;48.002;7.788;2023-05-17T01:53:19;5.70;99.90
2002;DHT22;1003;48.002;7.788;2023-05-17T01:55:53;5.70;99.90
2002;DHT22;1003;48.002;7.788;2023-05-17T01:58:28;5.70;99.90
2002;DHT22;1003;48.002;7.788;2023-05-17T02:00:59;5.70;99.90
2002;DHT22;1003;48.002;7.788;2023-05-17T02:03:28;5.70;99.90
2002;DHT22;1003;48.002;7.788;2023-05-17T02:05:55;5.70;99.90
2002;DHT22;1003;48.002;7.788;2023-05-17T02:08:22;5.70;99.90
2002;DHT22;1003;48.002;7.788;2023-05-17T02:10:49;5.70;99.90
2002;DHT22;1003;48.002;7.788;2023-05-17T02:13:16;5.70;99.90
2002;DHT22;1003;48.002;7.788;2023-05-17T02:15:45;5.70;99.90
2002;DHT22;1003;48.002;7.788;2023-05-17T02:18:12;5.80;99.90
2002;DHT22;1003;48.002;7.788;2023-05-17T02:20:39;5.80;99.90
2002;DHT22;1003;48.002;7.788;2023-05-17T02:23:06;5.80;99.90
2002;DHT22;1003;48.002;7.788;2023-05-17T02:25:33;5.80;99.90
2002;DHT22;1003;48.002;7.788;2023-05-17T02:28:00;5.80;99.90
2002;DHT22;1003;48.002;7.788;2023-05-17T02:30:27;5.80;99.90
2002;DHT22;1003;48.002;7.788;2023-05-17T02:32:55;5.80;99.90
2002;DHT22;1003;48.002;7.788;2023-05-17T02:35:22;5.80;99.90
2002;DHT22;1003;48.002;7.788;2023-05-17T02:37:50;5.70;99.90
2002;DHT22;1003;48.002;7.788;2023-05-17T02:40:17;5.70;99.90
2002;DHT22;1003;48.002;7.788;2023-05-17T02:42:44;5.90;99.90
2002;DHT22;1003;48.002;7.788;2023-05-17T02:45:11;6.00;99.90
2002;DHT22;1003;48.002;7.788;2023-05-17T02:47:38;5.90;99.90
2002;DHT22;1003;48.002;7.788;2023-05-17T02:50:07;5.90;99.90
2002;DHT22;1003;48.002;7.788;2023-05-17T02:52:35;5.90;99.90
2002;DHT22;1003;48.002;7.788;2023-05-17T02:55:02;5.90;99.90
2002;DHT22;1003;48.002;7.788;2023-05-17T02:57:30;5.80;99.90
2002;DHT22;1003;48.002;7.788;2023-05-17T02:59:58;5.80;99.90
2002;DHT22;1003;48.002;7.788;2023-05-17T03:02:25;5.80;99.90
2002;DHT22;1003;48.002;7.788;2023-05-17T03:04:52;5.80;99.90
2002;DHT22;1003;48.002;7.788;2023-05-17T03:07:20;5.80;99.90
2002;DHT22;1003;48.002;7.788;2023-05-17T03:09:47;5.90;99.90
2002;DHT22;1003;48.002;7.788;2023-05-17T03:12:14;5.80;99.90
2002;DHT22;1003;48.002;7.788;2023-05-17T03:14:41;5.80;99.90
2002;DHT22;1003;48.002;7.788;2023-05-17T03:17:08;5.70;99.90
2002;DHT22;1003;48.002;7.788;2023-05-17T03:19:35;5.60;99.90
2002;DHT22;1003;48.002;7.788;2023-05-17T03:22:03;5.60;99.90
2002;DHT22;1003;48.002;7.788;2023-05-17T03:24:31;5.50;99.90
2002;DHT22;1003;48.002;7.788;2023-05-17T03:26:58;5.50;99.90
2002;DHT22;1003;48.002;7.788;2023-05-17T03:29:25;5.50;99.90
2002;DHT22;1003;48.002;7.788;2023-05-17T03:31:52;5.40;99.90
2002;DHT22;1003;48.002;7.788;2023-05-17T03:34:19;5.40;99.90
2002;DHT22;1003;48.002;7.788;2023-05-17T03:36:58;5.40;99.90
2002;DHT22;1003;48.002;7.788;2023-05-17T03:39:34;5.40;99.90
2002;DHT22;1003;48.002;7.788;2023-05-17T03:42:05;5.70;99.90
2002;DHT22;1003;48.002;7.788;2023-05-17T03:44:32;5.70;99.90
2002;DHT22;1003;48.002;7.788;2023-05-17T03:46:59;5.60;99.90
2002;DHT22;1003;48.002;7.788;2023-05-17T03:49:26;5.70;99.90
2002;DHT22;1003;48.002;7.788;2023-05-17T03:51:53;5.70;99.90
2002;DHT22;1003;48.002;7.788;2023-05-17T03:54:20;5.70;99.90
2002;DHT22;1003;48.002;7.788;2023-05-17T03:56:48;5.90;99.90
2002;DHT22;1003;48.002;7.788;2023-05-17T03:59:16;5.90;99.90
2002;DHT22;1003;48.002;7.788;2023-05-17T04:01:43;5.80;99.90
2002;DHT22;1003;48.002;7.788;2023-05-17T04:04:10;5.80;99.90
2002;DHT22;1003;48.002;7.788;2023-05-17T04:06:38;5.80;99.90
2002;DHT22;1003;48.002;7.788;2023-05-17T04:09:05;5.70;99.90
2002;DHT22;1003;48.002;7.788;2023-05-17T04:11:34;5.70;99.90
2002;DHT22;1003;48.002;7.788;2023-05-17T04:14:03;5.70;99.90
2002;DHT22;1003;48.002;7.788;2023-05-17T04:16:31;5.80;99.90
2002;DHT22;1003;48.002;7.788;2023-05-17T04:18:58;5.80;99.90
2002;DHT22;1003;48.002;7.788;2023-05-17T04:21:26;5.90;99.90
2002;DHT22;1003;48.002;7.788;2023-05-17T04:23:53;5.90;99.90
2002;DHT22;1003;48.002;7.788;2023-05-17T04:26:20;5.90;99.90
2002;DHT22;1003;48.002;7.788;2023-05-17T04:28:47;5.90;99.90
2002;DHT22;1003;48.002;7.788;2023-05-17T04:31:16;6.00;99.90
2002;DHT22;1003;48.002;7.788;2023-05-17T04:33:43;6.10;99.90
2002;DHT22;1003;48.002;7.788;2023-05-17T04:36:10;6.30;99.90
2002;DHT22;1003;48.002;7.788;2023-05-17T04:38:37;6.50;99.90
2002;DHT22;1003;48.002;7.788;2023-05-17T04:41:05;6.50;99.90
2002;DHT22;1003;48.002;7.788;2023-05-17T04:43:34;6.60;99.90
2002;DHT22;1003;48.002;7.788;2023-05-17T04:46:01;6.80;99.90
2002;DHT22;1003;48.002;7.788;2023-05-17T04:48:31;6.90;99.90
2002;DHT22;1003;48.002;7.788;2023-05-17T04:51:00;7.10;99.90
2002;DHT22;1003;48.002;7.788;2023-05-17T04:53:28;7.20;99.90
2002;DHT22;1003;48.002;7.788;2023-05-17T04:55:56;7.40;99.90
2002;DHT22;1003;48.002;7.788;2023-05-17T04:58:23;7.50;99.90
2002;DHT22;1003;48.002;7.788;2023-05-17T05:00:51;7.70;99.90
2002;DHT22;1003;48.002;7.788;2023-05-17T05:03:18;8.00;99.90
2002;DHT22;1003;48.002;7.788;2023-05-17T05:05:47;8.70;99.90
2002;DHT22;1003;48.002;7.788;2023-05-17T05:08:17;9.70;99.90
2002;DHT22;1003;48.002;7.788;2023-05-17T05:10:44;10.80;99.90
2002;DHT22;1003;48.002;7.788;2023-05-17T05:13:11;11.40;99.90
2002;DHT22;1003;48.002;7.788;2023-05-17T05:15:38;11.90;99.90
2002;DHT22;1003;48.002;7.788;2023-05-17T05:18:06;12.40;99.90
2002;DHT22;1003;48.002;7.788;2023-05-17T05:20:33;12.30;99.90
2002;DHT22;1003;48.002;7.788;2023-05-17T05:23:01;12.40;99.90
2002;DHT22;1003;48.002;7.788;2023-05-17T05:25:30;13.00;99.90
2002;DHT22;1003;48.002;7.788;2023-05-17T05:27:57;13.70;99.90
2002;DHT22;1003;48.002;7.788;2023-05-17T05:30:24;13.90;99.90
2002;DHT22;1003;48.002;7.788;2023-05-17T05:32:51;13.90;99.90
2002;DHT22;1003;48.002;7.788;2023-05-17T05:35:19;14.20;99.90
2002;DHT22;1003;48.002;7.788;2023-05-17T05:37:50;14.50;99.90
2002;DHT22;1003;48.002;7.788;2023-05-17T05:40:20;14.50;99.90
2002;DHT22;1003;48.002;7.788;2023-05-17T05:42:47;14.50;99.90
2002;DHT22;1003;48.002;7.788;2023-05-17T05:45:14;14.70;99.90
2002;DHT22;1003;48.002;7.788;2023-05-17T05:47:42;14.60;99.90
2002;DHT22;1003;48.002;7.788;2023-05-17T05:50:09;14.10;99.90
2002;DHT22;1003;48.002;7.788;2023-05-17T05:52:37;13.70;99.90
2002;DHT22;1003;48.002;7.788;2023-05-17T05:55:04;13.60;99.90
2002;DHT22;1003;48.002;7.788;2023-05-17T05:57:33;13.50;99.90
2002;DHT22;1003;48.002;7.788;2023-05-17T06:00:00;13.60;99.90
2002;DHT22;1003;48.002;7.788;2023-05-17T06:02:29;13.70;99.90
2002;DHT22;1003;48.002;7.788;2023-05-17T06:04:56;13.60;99.90
2002;DHT22;1003;48.002;7.788;2023-05-17T06:07:23;13.40;99.90
2002;DHT22;1003;48.002;7.788;2023-05-17T06:09:50;13.40;99.90
2002;DHT22;1003;48.002;7.788;2023-05-17T06:12:17;13.70;99.90
2002;DHT22;1003;48.002;7.788;2023-05-17T06:14:46;13.70;99.90
2002;DHT22;1003;48.002;7.788;2023-05-17T06:17:13;13.60;99.90
2002;DHT22;1003;48.002;7.788;2023-05-17T06:19:40;13.70;99.90
2002;DHT22;1003;48.002;7.788;2023-05-17T06:22:07;13.50;99.90
2002;DHT22;1003;48.002;7.788;2023-05-17T06:24:34;13.40;99.90
2002;DHT22;1003;48.002;7.788;2023-05-17T06:27:01;13.60;99.90
2002;DHT22;1003;48.002;7.788;2023-05-17T06:29:28;13.50;99.90
2002;DHT22;1003;48.002;7.788;2023-05-17T06:31:57;13.30;99.90
2002;DHT22;1003;48.002;7.788;2023-05-17T06:34:24;13.40;99.90
2002;DHT22;1003;48.002;7.788;2023-05-17T06:36:51;13.50;99.90
2002;DHT22;1003;48.002;7.788;2023-05-17T06:39:18;13.60;99.90
2002;DHT22;1003;48.002;7.788;2023-05-17T06:41:45;13.10;99.90
2002;DHT22;1003;48.002;7.788;2023-05-17T06:44:13;13.40;99.90
2002;DHT22;1003;48.002;7.788;2023-05-17T06:46:40;13.70;99.90
2002;DHT22;1003;48.002;7.788;2023-05-17T06:49:08;14.20;99.90
2002;DHT22;1003;48.002;7.788;2023-05-17T06:51:35;14.20;99.90
2002;DHT22;1003;48.002;7.788;2023-05-17T06:54:04;14.50;99.90
2002;DHT22;1003;48.002;7.788;2023-05-17T06:56:31;15.10;99.90
2002;DHT22;1003;48.002;7.788;2023-05-17T06:58:58;15.10;99.90
2002;DHT22;1003;48.002;7.788;2023-05-17T07:01:25;15.00;99.90
2002;DHT22;1003;48.002;7.788;2023-05-17T07:03:52;15.20;99.90
2002;DHT22;1003;48.002;7.788;2023-05-17T07:06:20;15.70;99.90
2002;DHT22;1003;48.002;7.788;2023-05-17T07:08:48;15.50;99.90
2002;DHT22;1003;48.002;7.788;2023-05-17T07:11:15;15.70;99.90
2002;DHT22;1003;48.002;7.788;2023-05-17T07:13:42;16.10;99.90
2002;DHT22;1003;48.002;7.788;2023-05-17T07:16:09;16.20;99.90
2002;DHT22;1003;48.002;7.788;2023-05-17T07:18:36;16.20;99.90
2002;DHT22;1003;48.002;7.788;2023-05-17T07:21:06;16.20;99.90
2002;DHT22;1003;48.002;7.788;2023-05-17T07:23:34;15.80;99.90
2002;DHT22;1003;48.002;7.788;2023-05-17T07:26:01;15.30;99.90
2002;DHT22;1003;48.002;7.788;2023-05-17T07:28:28;15.30;99.90
2002;DHT22;1003;48.002;7.788;2023-05-17T07:30:56;15.00;99.90
2002;DHT22;1003;48.002;7.788;2023-05-17T07:33:23;14.60;99.90
2002;DHT22;1003;48.002;7.788;2023-05-17T07:35:50;14.90;99.90
2002;DHT22;1003;48.002;7.788;2023-05-17T07:38:17;15.30;99.90
2002;DHT22;1003;48.002;7.788;2023-05-17T07:40:45;15.30;99.90
2002;DHT22;1003;48.002;7.788;2023-05-17T07:43:12;15.20;99.90
2002;DHT22;1003;48.002;7.788;2023-05-17T07:45:41;15.40;99.90
2002;DHT22;1003;48.002;7.788;2023-05-17T07:48:08;14.90;99.90
2002;DHT22;1003;48.002;7.788;2023-05-17T07:50:35;14.60;99.90
2002;DHT22;1003;48.002;7.788;2023-05-17T07:53:02;14.40;99.90
2002;DHT22;1003;48.002;7.788;2023-05-17T07:55:30;14.90;99.90
2002;DHT22;1003;48.002;7.788;2023-05-17T07:57:58;15.20;99.90
2002;DHT22;1003;48.002;7.788;2023-05-17T08:00:25;15.90;99.90
2002;DHT22;1003;48.002;7.788;2023-05-17T08:02:53;16.20;99.90
2002;DHT22;1003;48.002;7.788;2023-05-17T08:05:20;15.80;99.90
2002;DHT22;1003;48.002;7.788;2023-05-17T08:07:48;15.90;99.90
2002;DHT22;1003;48.002;7.788;2023-05-17T08:10:15;16.10;99.90
2002;DHT22;1003;48.002;7.788;2023-05-17T08:12:42;16.10;99.90
2002;DHT22;1003;48.002;7.788;2023-05-17T08:15:11;16.10;99.90
2002;DHT22;1003;48.002;7.788;2023-05-17T08:17:38;16.10;99.90
2002;DHT22;1003;48.002;7.788;2023-05-17T08:20:06;15.70;99.90
2002;DHT22;1003;48.002;7.788;2023-05-17T08:22:34;15.30;99.90
2002;DHT22;1003;48.002;7.788;2023-05-17T08:25:01;14.90;99.90
2002;DHT22;1003;48.002;7.788;2023-05-17T08:27:28;15.10;99.90
2002;DHT22;1003;48.002;7.788;2023-05-17T08:29:56;14.90;99.90
2002;DHT22;1003;48.002;7.788;2023-05-17T08:32:25;14.90;99.90
2002;DHT22;1003;48.002;7.788;2023-05-17T08:34:52;14.70;99.90
2002;DHT22;1003;48.002;7.788;2023-05-17T08:37:20;14.70;99.90
2002;DHT22;1003;48.002;7.788;2023-05-17T08:39:47;14.90;99.90
2002;DHT22;1003;48.002;7.788;2023-05-17T08:42:19;15.00;99.90
2002;DHT22;1003;48.002;7.788;2023-05-17T08:44:49;14.90;99.90
2002;DHT22;1003;48.002;7.788;2023-05-17T08:47:18;15.40;99.90
2002;DHT22;1003;48.002;7.788;2023-05-17T08:49:56;15.40;99.90
2002;DHT22;1003;48.002;7.788;2023-05-17T08:52:28;14.90;99.90
2002;DHT22;1003;48.002;7.788;2023-05-17T08:54:57;14.50;99.90
2002;DHT22;1003;48.002;7.788;2023-05-17T08:57:27;14.50;99.90
2002;DHT22;1003;48.002;7.788;2023-05-17T08:59:57;14.90;99.90
2002;DHT22;1003;48.002;7.788;2023-05-17T09:02:25;14.90;99.90
2002;DHT22;1003;48.002;7.788;2023-05-17T09:04:57;15.00;99.90
2002;DHT22;1003;48.002;7.788;2023-05-17T09:07:25;15.00;99.90
2002;DHT22;1003;48.002;7.788;2023-05-17T09:09:53;14.90;99.90
2002;DHT22;1003;48.002;7.788;2023-05-17T09:12:21;14.70;99.90
2002;DHT22;1003;48.002;7.788;2023-05-17T09:14:48;14.70;99.90
2002;DHT22;1003;48.002;7.788;2023-05-17T09:17:16;14.90;99.90
2002;DHT22;1003;48.002;7.788;2023-05-17T09:19:46;15.10;99.90
2002;DHT22;1003;48.002;7.788;2023-05-17T09:22:17;15.10;99.90
2002;DHT22;1003;48.002;7.788;2023-05-17T09:24:45;15.10;99.90
2002;DHT22;1003;48.002;7.788;2023-05-17T09:27:14;14.80;99.90
2002;DHT22;1003;48.002;7.788;2023-05-17T09:29:43;14.70;99.90
2002;DHT22;1003;48.002;7.788;2023-05-17T09:32:15;14.60;99.90
2002;DHT22;1003;48.002;7.788;2023-05-17T09:34:45;14.90;99.90
2002;DHT22;1003;48.002;7.788;2023-05-17T09:37:13;14.90;99.90
2002;DHT22;1003;48.002;7.788;2023-05-17T09:39:43;15.30;99.90
2002;DHT22;1003;48.002;7.788;2023-05-17T09:42:11;15.10;99.90
2002;DHT22;1003;48.002;7.788;2023-05-17T09:44:49;15.30;99.90
2002;DHT22;1003;48.002;7.788;2023-05-17T09:47:25;15.20;99.90
2002;DHT22;1003;48.002;7.788;2023-05-17T09:49:55;15.40;99.90
2002;DHT22;1003;48.002;7.788;2023-05-17T09:52:26;15.10;99.90
2002;DHT22;1003;48.002;7.788;2023-05-17T09:54:57;14.90;99.90
2002;DHT22;1003;48.002;7.788;2023-05-17T09:57:26;14.70;99.90
2002;DHT22;1003;48.002;7.788;2023-05-17T09:59:55;14.60;99.90
2002;DHT22;1003;48.002;7.788;2023-05-17T10:02:26;14.90;99.90
2002;DHT22;1003;48.002;7.788;2023-05-17T10:04:57;14.80;99.90
2002;DHT22;1003;48.002;7.788;2023-05-17T10:07:31;14.60;99.90
2002;DHT22;1003;48.002;7.788;2023-05-17T10:10:00;14.80;99.90
2002;DHT22;1003;48.002;7.788;2023-05-17T10:12:28;14.80;99.90
2002;DHT22;1003;48.002;7.788;2023-05-17T10:14:59;14.40;99.90
2002;DHT22;1003;48.002;7.788;2023-05-17T10:17:27;14.60;99.90
2002;DHT22;1003;48.002;7.788;2023-05-17T10:19:56;15.10;99.90
2002;DHT22;1003;48.002;7.788;2023-05-17T10:22:23;14.90;99.90
2002;DHT22;1003;48.002;7.788;2023-05-17T10:24:55;14.90;99.90
2002;DHT22;1003;48.002;7.788;2023-05-17T10:27:24;15.10;99.90
2002;DHT22;1003;48.002;7.788;2023-05-17T10:29:52;15.30;99.90
2002;DHT22;1003;48.002;7.788;2023-05-17T10:32:22;15.50;99.90
2002;DHT22;1003;48.002;7.788;2023-05-17T10:34:52;15.70;99.90
2002;DHT22;1003;48.002;7.788;2023-05-17T10:37:20;15.70;99.90
2002;DHT22;1003;48.002;7.788;2023-05-17T10:39:49;15.70;99.90
2002;DHT22;1003;48.002;7.788;2023-05-17T10:42:20;15.80;99.90
2002;DHT22;1003;48.002;7.788;2023-05-17T10:44:48;15.60;99.90
2002;DHT22;1003;48.002;7.788;2023-05-17T10:47:15;15.70;99.90
2002;DHT22;1003;48.002;7.788;2023-05-17T10:49:43;15.80;99.90
2002;DHT22;1003;48.002;7.788;2023-05-17T10:52:13;15.70;99.90
2002;DHT22;1003;48.002;7.788;2023-05-17T10:54:44;15.50;99.90
2002;DHT22;1003;48.002;7.788;2023-05-17T10:57:21;15.20;99.90
2002;DHT22;1003;48.002;7.788;2023-05-17T11:00:00;15.50;99.90
2002;DHT22;1003;48.002;7.788;2023-05-17T11:02:31;15.40;99.90
2002;DHT22;1003;48.002;7.788;2023-05-17T11:04:59;15.60;99.90
2002;DHT22;1003;48.002;7.788;2023-05-17T11:07:27;15.90;99.90
2002;DHT22;1003;48.002;7.788;2023-05-17T11:10:03;16.10;99.90
2002;DHT22;1003;48.002;7.788;2023-05-17T11:12:37;16.30;99.90
2002;DHT22;1003;48.002;7.788;2023-05-17T11:15:08;16.10;99.90
2002;DHT22;1003;48.002;7.788;2023-05-17T11:17:47;15.90;99.90
2002;DHT22;1003;48.002;7.788;2023-05-17T11:20:30;15.60;99.90
2002;DHT22;1003;48.002;7.788;2023-05-17T11:23:01;15.70;99.90
2002;DHT22;1003;48.002;7.788;2023-05-17T11:25:31;15.80;99.90
2002;DHT22;1003;48.002;7.788;2023-05-17T11:28:06;16.00;99.90
2002;DHT22;1003;48.002;7.788;2023-05-17T11:30:39;16.20;99.90
2002;DHT22;1003;48.002;7.788;2023-05-17T11:33:12;16.40;99.90
2002;DHT22;1003;48.002;7.788;2023-05-17T11:35:39;16.30;99.90
2002;DHT22;1003;48.002;7.788;2023-05-17T11:38:14;16.00;99.90
2002;DHT22;1003;48.002;7.788;2023-05-17T11:40:43;15.80;99.90
2002;DHT22;1003;48.002;7.788;2023-05-17T11:43:14;15.90;99.90
2002;DHT22;1003;48.002;7.788;2023-05-17T11:45:44;16.10;99.90
2002;DHT22;1003;48.002;7.788;2023-05-17T11:48:15;16.30;99.90
2002;DHT22;1003;48.002;7.788;2023-05-17T11:50:45;16.10;99.90
2002;DHT22;1003;48.002;7.788;2023-05-17T11:53:20;15.90;99.90
2002;DHT22;1003;48.002;7.788;2023-05-17T11:55:49;16.00;99.90
2002;DHT22;1003;48.002;7.788;2023-05-17T11:58:23;16.10;99.90
2002;DHT22;1003;48.002;7.788;2023-05-17T12:00:53;16.20;99.90
2002;DHT22;1003;48.002;7.788;2023-05-17T12:03:25;16.00;99.90
2002;DHT22;1003;48.002;7.788;2023-05-17T12:06:02;16.10;99.90
2002;DHT22;1003;48.002;7.788;2023-05-17T12:08:32;16.20;99.90
2002;DHT22;1003;48.002;7.788;2023-05-17T12:11:01;15.90;99.90
2002;DHT22;1003;48.002;7.788;2023-05-17T12:13:32;16.00;99.90
2002;DHT22;1003;48.002;7.788;2023-05-17T12:16:07;16.20;99.90
2002;DHT22;1003;48.002;7.788;2023-05-17T12:18:39;16.30;99.90
2002;DHT22;1003;48.002;7.788;2023-05-17T12:21:08;16.50;99.90
2002;DHT22;1003;48.002;7.788;2023-05-17T12:23:39;16.30;99.90
2002;DHT22;1003;48.002;7.788;2023-05-17T12:26:09;16.40;99.90
2002;DHT22;1003;48.002;7.788;2023-05-17T12:28:42;16.60;99.90
2002;DHT22;1003;48.002;7.788;2023-05-17T12:31:13;16.40;99.90
2002;DHT22;1003;48.002;7.788;2023-05-17T12:33:45;16.50;99.90
2002;DHT22;1003;48.002;7.788;2023-05-17T12:36:16;16.60;99.90
2002;DHT22;1003;48.002;7.788;2023-05-17T12:38:45;16.40;99.90
2002;DHT22;1003;48.002;7.788;2023-05-17T12:41:15;16.20;99.90
2002;DHT22;1003;48.002;7.788;2023-05-17T12:43:45;15.90;99.90
2002;DHT22;1003;48.002;7.788;2023-05-17T12:46:14;15.70;99.90
2002;DHT22;1003;48.002;7.788;2023-05-17T12:48:44;16.20;99.90
2002;DHT22;1003;48.002;7.788;2023-05-17T12:51:16;16.30;99.90
2002;DHT22;1003;48.002;7.788;2023-05-17T12:53:49;16.80;99.90
2002;DHT22;1003;48.002;7.788;2023-05-17T12:56:18;17.00;99.90
2002;DHT22;1003;48.002;7.788;2023-05-17T12:59:05;17.10;99.90
2002;DHT22;1003;48.002;7.788;2023-05-17T13:01:41;16.90;99.90
2002;DHT22;1003;48.002;7.788;2023-05-17T13:04:17;16.70;99.90
2002;DHT22;1003;48.002;7.788;2023-05-17T13:06:58;16.40;99.90
2002;DHT22;1003;48.002;7.788;2023-05-17T13:09:31;16.20;99.90
2002;DHT22;1003;48.002;7.788;2023-05-17T13:12:03;16.20;99.90
2002;DHT22;1003;48.002;7.788;2023-05-17T13:14:35;16.20;99.90
2002;DHT22;1003;48.002;7.788;2023-05-17T13:17:04;16.30;99.90
2002;DHT22;1003;48.002;7.788;2023-05-17T13:19:32;16.10;99.90
2002;DHT22;1003;48.002;7.788;2023-05-17T13:22:00;16.20;99.90
2002;DHT22;1003;48.002;7.788;2023-05-17T13:24:30;16.20;99.90
2002;DHT22;1003;48.002;7.788;2023-05-17T13:27:00;16.20;99.90
2002;DHT22;1003;48.002;7.788;2023-05-17T13:29:29;16.50;99.90
2002;DHT22;1003;48.002;7.788;2023-05-17T13:31:58;16.60;99.90
2002;DHT22;1003;48.002;7.788;2023-05-17T13:34:25;16.50;99.90
2002;DHT22;1003;48.002;7.788;2023-05-17T13:36:52;16.30;99.90
2002;DHT22;1003;48.002;7.788;2023-05-17T13:39:21;16.30;99.90
2002;DHT22;1003;48.002;7.788;2023-05-17T13:41:49;16.20;99.90
2002;DHT22;1003;48.002;7.788;2023-05-17T13:44:16;16.10;99.90
2002;DHT22;1003;48.002;7.788;2023-05-17T13:46:43;16.20;99.90
2002;DHT22;1003;48.002;7.788;2023-05-17T13:49:12;16.10;99.90
2002;DHT22;1003;48.002;7.788;2023-05-17T13:51:39;16.10;99.90
2002;DHT22;1003;48.002;7.788;2023-05-17T13:54:07;16.30;99.90
2002;DHT22;1003;48.002;7.788;2023-05-17T13:56:34;16.60;99.90
2002;DHT22;1003;48.002;7.788;2023-05-17T13:59:01;16.50;99.90
2002;DHT22;1003;48.002;7.788;2023-05-17T14:01:29;16.40;99.90
2002;DHT22;1003;48.002;7.788;2023-05-17T14:03:56;16.30;99.90
2002;DHT22;1003;48.002;7.788;2023-05-17T14:06:26;16.10;99.90
2002;DHT22;1003;48.002;7.788;2023-05-17T14:08:56;16.20;99.90
2002;DHT22;1003;48.002;7.788;2023-05-17T14:11:25;16.10;99.90
2002;DHT22;1003;48.002;7.788;2023-05-17T14:13:52;16.00;99.90
2002;DHT22;1003;48.002;7.788;2023-05-17T14:16:19;16.00;99.90
2002;DHT22;1003;48.002;7.788;2023-05-17T14:18:47;16.20;99.90
2002;DHT22;1003;48.002;7.788;2023-05-17T14:21:14;16.00;99.90
2002;DHT22;1003;48.002;7.788;2023-05-17T14:23:43;16.40;99.90
2002;DHT22;1003;48.002;7.788;2023-05-17T14:26:10;16.80;99.90
2002;DHT22;1003;48.002;7.788;2023-05-17T14:28:37;16.90;99.90
2002;DHT22;1003;48.002;7.788;2023-05-17T14:31:05;16.50;99.90
2002;DHT22;1003;48.002;7.788;2023-05-17T14:33:33;16.20;99.90
2002;DHT22;1003;48.002;7.788;2023-05-17T14:36:00;16.00;99.90
2002;DHT22;1003;48.002;7.788;2023-05-17T14:38:28;15.50;99.90
2002;DHT22;1003;48.002;7.788;2023-05-17T14:40:57;15.40;99.90
2002;DHT22;1003;48.002;7.788;2023-05-17T14:43:25;15.40;99.90
2002;DHT22;1003;48.002;7.788;2023-05-17T14:45:52;15.70;99.90
2002;DHT22;1003;48.002;7.788;2023-05-17T14:48:19;16.00;99.90
2002;DHT22;1003;48.002;7.788;2023-05-17T14:50:46;16.00;99.90
2002;DHT22;1003;48.002;7.788;2023-05-17T14:53:13;16.10;99.90
2002;DHT22;1003;48.002;7.788;2023-05-17T14:55:41;16.20;99.90
2002;DHT22;1003;48.002;7.788;2023-05-17T14:58:09;16.30;99.90
2002;DHT22;1003;48.002;7.788;2023-05-17T15:00:38;16.20;99.90
2002;DHT22;1003;48.002;7.788;2023-05-17T15:03:06;16.00;99.90
2002;DHT22;1003;48.002;7.788;2023-05-17T15:05:33;15.60;99.90
2002;DHT22;1003;48.002;7.788;2023-05-17T15:08:00;15.30;99.90
2002;DHT22;1003;48.002;7.788;2023-05-17T15:10:27;15.30;99.90
2002;DHT22;1003;48.002;7.788;2023-05-17T15:12:54;15.40;99.90
2002;DHT22;1003;48.002;7.788;2023-05-17T15:15:23;15.60;99.90
2002;DHT22;1003;48.002;7.788;2023-05-17T15:17:50;15.50;99.90
2002;DHT22;1003;48.002;7.788;2023-05-17T15:20:17;15.60;99.90
2002;DHT22;1003;48.002;7.788;2023-05-17T15:22:45;15.50;99.90
2002;DHT22;1003;48.002;7.788;2023-05-17T15:25:12;15.50;99.90
2002;DHT22;1003;48.002;7.788;2023-05-17T15:27:40;15.50;99.90
2002;DHT22;1003;48.002;7.788;2023-05-17T15:30:08;15.50;99.90
2002;DHT22;1003;48.002;7.788;2023-05-17T15:32:37;15.70;99.90
2002;DHT22;1003;48.002;7.788;2023-05-17T15:35:07;15.80;99.90
2002;DHT22;1003;48.002;7.788;2023-05-17T15:37:39;15.70;99.90
2002;DHT22;1003;48.002;7.788;2023-05-17T15:40:09;15.80;99.90
2002;DHT22;1003;48.002;7.788;2023-05-17T15:42:39;15.80;99.90
2002;DHT22;1003;48.002;7.788;2023-05-17T15:45:07;16.00;99.90
2002;DHT22;1003;48.002;7.788;2023-05-17T15:47:36;16.10;99.90
2002;DHT22;1003;48.002;7.788;2023-05-17T15:50:05;16.00;99.90
2002;DHT22;1003;48.002;7.788;2023-05-17T15:52:33;15.80;99.90
2002;DHT22;1003;48.002;7.788;2023-05-17T15:55:00;15.70;99.90
2002;DHT22;1003;48.002;7.788;2023-05-17T15:57:27;15.80;99.90
2002;DHT22;1003;48.002;7.788;2023-05-17T15:59:54;15.80;99.90
2002;DHT22;1003;48.002;7.788;2023-05-17T16:02:21;15.90;99.90
2002;DHT22;1003;48.002;7.788;2023-05-17T16:04:51;15.80;99.90
2002;DHT22;1003;48.002;7.788;2023-05-17T16:07:18;15.90;99.90
2002;DHT22;1003;48.002;7.788;2023-05-17T16:09:45;15.70;99.90
2002;DHT22;1003;48.002;7.788;2023-05-17T16:12:12;15.70;99.90
2002;DHT22;1003;48.002;7.788;2023-05-17T16:14:39;15.70;99.90
2002;DHT22;1003;48.002;7.788;2023-05-17T16:17:06;15.50;99.90
2002;DHT22;1003;48.002;7.788;2023-05-17T16:19:34;15.40;99.90